createdAt,value
2023-03-25T00:01:35.613Z,72.89
2023-03-25T00:04:04.600Z,72.93
2023-03-25T00:06:35.873Z,72.58
2023-03-25T00:09:04.512Z,72.19
2023-03-25T00:11:31.878Z,72.48
2023-03-25T00:13:59.084Z,71.80
2023-03-25T00:16:26.914Z,71.90
2023-03-25T00:18:54.458Z,71.99
2023-03-25T00:21:23.564Z,71.65
2023-03-25T00:23:50.841Z,71.77
2023-03-25T00:26:18.183Z,71.14
2023-03-25T00:28:45.463Z,70.37
2023-03-25T00:31:15.218Z,69.49
2023-03-25T00:33:42.494Z,69.38
2023-03-25T00:36:13.959Z,68.85
2023-03-25T00:38:43.441Z,68.80
2023-03-25T00:41:23.523Z,68.53
2023-03-25T00:43:53.185Z,68.31
2023-03-25T00:46:23.049Z,67.98
2023-03-25T00:48:51.064Z,67.99
2023-03-25T00:51:22.301Z,68.00
2023-03-25T00:53:55.986Z,67.94
2023-03-25T00:56:24.330Z,68.02
2023-03-25T00:58:52.436Z,68.41
2023-03-25T01:01:29.394Z,68.81
2023-03-25T01:03:59.430Z,69.40
2023-03-25T01:06:29.768Z,70.38
2023-03-25T01:08:58.260Z,71.10
2023-03-25T01:11:28.653Z,71.77
2023-03-25T01:14:00.250Z,72.48
2023-03-25T01:16:28.967Z,71.97
2023-03-25T01:18:56.820Z,71.43
2023-03-25T01:21:25.610Z,71.00
2023-03-25T01:23:52.932Z,69.41
2023-03-25T01:26:20.631Z,69.48
2023-03-25T01:28:48.352Z,69.20
2023-03-25T01:31:18.058Z,69.94
2023-03-25T01:33:45.824Z,69.82
2023-03-25T01:36:13.883Z,70.31
2023-03-25T01:38:44.126Z,70.55
2023-03-25T01:41:11.742Z,71.16
2023-03-25T01:43:39.448Z,71.44
2023-03-25T01:46:14.548Z,72.04
2023-03-25T01:48:44.620Z,71.83
2023-03-25T01:51:20.631Z,71.83
2023-03-25T01:53:49.089Z,71.98
2023-03-25T01:56:22.294Z,71.56
2023-03-25T01:58:52.083Z,71.60
2023-03-25T02:01:22.569Z,72.08
2023-03-25T02:03:53.283Z,72.47
2023-03-25T02:06:29.333Z,71.80
2023-03-25T02:09:00.196Z,71.62
2023-03-25T02:11:29.956Z,73.24
2023-03-25T02:14:02.453Z,72.43
2023-03-25T02:16:50.676Z,72.70
2023-03-25T02:19:51.710Z,71.23
2023-03-25T02:22:42.475Z,71.00
2023-03-25T02:25:35.755Z,70.82
2023-03-25T02:28:10.467Z,70.46
2023-03-25T02:31:06.877Z,70.86
2023-03-25T02:33:37.160Z,70.67
2023-03-25T02:36:30.493Z,70.63
2023-03-25T02:39:27.344Z,69.48
2023-03-25T02:42:09.500Z,68.94
2023-03-25T02:44:41.925Z,68.73
2023-03-25T02:47:14.123Z,69.50
2023-03-25T02:49:58.696Z,69.74
2023-03-25T02:52:31.797Z,70.80
2023-03-25T02:55:05.468Z,70.80
2023-03-25T02:57:36.844Z,71.13
2023-03-25T03:00:15.833Z,71.18
2023-03-25T03:03:05.165Z,71.83
2023-03-25T03:05:37.558Z,71.98
2023-03-25T03:08:39.931Z,72.29
2023-03-25T03:11:22.613Z,73.33
2023-03-25T03:14:02.807Z,73.35
2023-03-25T03:17:05.660Z,72.87
2023-03-25T03:19:42.151Z,72.49
2023-03-25T03:22:15.384Z,72.47
2023-03-25T03:24:51.730Z,71.61
2023-03-25T03:27:24.191Z,71.02
2023-03-25T03:30:14.021Z,69.90
2023-03-25T03:33:13.674Z,69.05
2023-03-25T03:35:52.263Z,69.21
2023-03-25T03:38:23.846Z,68.41
2023-03-25T03:40:56.042Z,67.91
2023-03-25T03:43:41.953Z,67.19
2023-03-25T03:46:28.657Z,67.11
2023-03-25T03:48:59.218Z,66.43
2023-03-25T03:51:26.717Z,67.03
2023-03-25T03:53:58.703Z,67.81
2023-03-25T03:56:37.762Z,68.70
2023-03-25T03:59:13.875Z,70.00
2023-03-25T04:01:49.213Z,71.26
2023-03-25T04:04:22.658Z,73.24
2023-03-25T04:06:58.228Z,75.32
2023-03-25T04:09:35.343Z,76.37
2023-03-25T04:12:18.260Z,74.81
2023-03-25T04:14:46.976Z,74.49
2023-03-25T04:17:14.582Z,74.48
2023-03-25T04:19:41.855Z,81.42
2023-03-25T04:22:09.456Z,82.13
2023-03-25T04:24:38.300Z,79.90
2023-03-25T04:27:05.794Z,78.05
2023-03-25T04:29:34.502Z,81.88
2023-03-25T04:32:02.382Z,83.93
2023-03-25T04:34:29.854Z,82.91
2023-03-25T04:36:58.494Z,82.04
2023-03-25T04:39:29.978Z,80.86
2023-03-25T04:41:57.598Z,81.64
2023-03-25T04:44:26.233Z,81.69
2023-03-25T04:46:53.859Z,81.43
2023-03-25T04:49:22.982Z,80.38
2023-03-25T04:51:52.790Z,77.84
2023-03-25T04:54:21.741Z,77.30
2023-03-25T04:56:51.479Z,76.45
2023-03-25T04:59:20.309Z,76.02
2023-03-25T05:01:48.601Z,75.92
2023-03-25T05:04:18.013Z,75.44
2023-03-25T05:06:48.758Z,75.15
2023-03-25T05:09:24.855Z,75.00
2023-03-25T05:11:53.923Z,74.06
2023-03-25T05:14:22.320Z,73.74
2023-03-25T05:16:53.948Z,73.43
2023-03-25T05:19:22.117Z,72.77
2023-03-25T05:21:50.023Z,73.00
2023-03-25T05:24:17.962Z,71.96
2023-03-25T05:26:45.671Z,72.28
2023-03-25T05:29:16.048Z,71.79
2023-03-25T05:31:46.342Z,70.75
2023-03-25T05:34:15.032Z,70.27
2023-03-25T05:36:42.440Z,69.75
2023-03-25T05:39:11.171Z,67.74
2023-03-25T05:41:41.833Z,66.89
2023-03-25T05:44:15.064Z,66.66
2023-03-25T05:46:42.420Z,64.78
2023-03-25T05:49:10.090Z,64.38
2023-03-25T05:51:38.052Z,63.85
2023-03-25T05:54:11.918Z,63.82
2023-03-25T05:56:40.293Z,63.37
2023-03-25T05:59:08.642Z,63.10
2023-03-25T06:01:42.302Z,62.33
2023-03-25T06:04:13.320Z,62.74
2023-03-25T06:06:41.629Z,62.58
2023-03-25T06:09:09.132Z,61.57
2023-03-25T06:11:38.889Z,60.39
2023-03-25T06:14:07.221Z,59.50
2023-03-25T06:16:36.091Z,58.77
2023-03-25T06:19:04.242Z,59.37
2023-03-25T06:21:35.128Z,57.79
2023-03-25T06:24:03.132Z,57.21
2023-03-25T06:26:33.009Z,58.44
2023-03-25T06:29:03.310Z,58.23
2023-03-25T06:31:34.383Z,58.67
2023-03-25T06:34:02.110Z,58.45
2023-03-25T06:36:29.696Z,57.76
2023-03-25T06:38:58.645Z,57.34
2023-03-25T06:41:26.776Z,58.13
2023-03-25T06:44:07.986Z,58.62
2023-03-25T06:46:47.921Z,59.29
2023-03-25T06:49:29.809Z,60.23
2023-03-25T06:51:58.773Z,59.96
2023-03-25T06:54:26.250Z,59.63
2023-03-25T06:56:54.127Z,59.37
2023-03-25T06:59:21.468Z,58.71
2023-03-25T07:01:48.886Z,58.49
2023-03-25T07:04:17.862Z,57.98
2023-03-25T07:06:47.020Z,57.69
2023-03-25T07:09:14.528Z,57.68
2023-03-25T07:11:43.450Z,58.14
2023-03-25T07:14:11.020Z,57.73
2023-03-25T07:16:38.669Z,58.61
2023-03-25T07:19:06.315Z,59.45
2023-03-25T07:21:34.017Z,59.32
2023-03-25T07:24:02.003Z,59.29
2023-03-25T07:26:29.337Z,58.01
2023-03-25T07:28:57.188Z,58.15
2023-03-25T07:31:25.316Z,56.77
2023-03-25T07:33:52.990Z,56.43
2023-03-25T07:36:22.629Z,55.59
2023-03-25T07:38:50.383Z,53.78
2023-03-25T07:41:18.053Z,53.73
2023-03-25T07:44:05.999Z,53.88
2023-03-25T07:46:33.258Z,53.78
2023-03-25T07:49:01.514Z,54.09
2023-03-25T07:51:30.717Z,52.73
2023-03-25T07:54:04.924Z,52.69
2023-03-25T07:56:33.243Z,52.08
2023-03-25T07:59:01.521Z,52.45
2023-03-25T08:01:29.198Z,53.38
2023-03-25T08:03:57.077Z,53.47
2023-03-25T08:06:24.880Z,53.25
2023-03-25T08:08:52.378Z,53.31
2023-03-25T08:11:20.209Z,53.60
2023-03-25T08:13:48.032Z,53.58
2023-03-25T08:16:15.958Z,53.65
2023-03-25T08:18:45.400Z,54.03
2023-03-25T08:21:13.934Z,54.02
2023-03-25T08:23:41.603Z,54.86
2023-03-25T08:26:12.104Z,54.24
2023-03-25T08:28:39.427Z,54.56
2023-03-25T08:31:09.089Z,54.32
2023-03-25T08:33:39.758Z,54.26
2023-03-25T08:36:10.582Z,54.49
2023-03-25T08:38:38.513Z,54.98
2023-03-25T08:41:05.847Z,54.92
2023-03-25T08:43:33.186Z,55.05
2023-03-25T08:46:01.093Z,55.31
2023-03-25T08:48:28.696Z,54.46
2023-03-25T08:50:56.824Z,54.92
2023-03-25T08:53:25.348Z,54.77
2023-03-25T08:55:57.590Z,54.24
2023-03-25T08:58:26.223Z,53.74
2023-03-25T09:00:56.169Z,54.21
2023-03-25T09:03:24.590Z,52.81
2023-03-25T09:05:51.960Z,50.99
2023-03-25T09:08:19.806Z,49.79
2023-03-25T09:10:47.969Z,49.32
2023-03-25T09:13:18.547Z,49.16
2023-03-25T09:15:46.655Z,48.94
2023-03-25T09:18:14.225Z,49.63
2023-03-25T09:20:41.609Z,48.70
2023-03-25T09:23:10.181Z,49.17
2023-03-25T09:25:38.690Z,49.96
2023-03-25T09:28:06.385Z,48.82
2023-03-25T09:30:34.118Z,48.75
2023-03-25T09:33:01.928Z,49.61
2023-03-25T09:35:29.845Z,49.61
2023-03-25T09:37:57.302Z,49.61
2023-03-25T09:40:25.287Z,49.88
2023-03-25T09:43:01.401Z,48.86
2023-03-25T09:45:43.903Z,48.54
2023-03-25T09:48:36.978Z,48.18
2023-03-25T09:51:19.556Z,48.72
2023-03-25T09:53:51.040Z,47.59
2023-03-25T09:56:23.262Z,47.21
2023-03-25T09:59:00.778Z,47.33
2023-03-25T10:01:35.448Z,47.12
2023-03-25T10:04:33.912Z,45.87
2023-03-25T10:07:29.065Z,45.20
2023-03-25T10:10:24.793Z,45.69
2023-03-25T10:13:16.977Z,45.29
2023-03-25T10:15:59.887Z,44.86
2023-03-25T10:18:28.376Z,43.98
2023-03-25T10:21:24.121Z,43.80
2023-03-25T10:24:02.806Z,43.16
2023-03-25T10:26:53.153Z,42.88
2023-03-25T10:29:27.630Z,42.50
2023-03-25T10:32:02.204Z,42.66
2023-03-25T10:34:56.753Z,43.40
2023-03-25T10:37:34.298Z,43.56
2023-03-25T10:40:25.756Z,44.32
2023-03-25T10:42:58.591Z,43.11
2023-03-25T10:45:29.025Z,42.10
2023-03-25T10:48:06.372Z,42.27
2023-03-25T10:50:33.707Z,42.21
2023-03-25T10:53:01.451Z,41.67
2023-03-25T10:55:35.191Z,41.16
2023-03-25T10:58:03.308Z,40.69
2023-03-25T11:00:30.884Z,40.68
2023-03-25T11:02:58.296Z,41.01
2023-03-25T11:05:32.178Z,40.70
2023-03-25T11:08:18.274Z,39.90
2023-03-25T11:10:56.096Z,40.05
2023-03-25T11:13:31.412Z,39.82
2023-03-25T11:16:02.498Z,40.12
2023-03-25T11:18:40.431Z,40.46
2023-03-25T11:21:13.545Z,40.67
2023-03-25T11:23:48.478Z,41.44
2023-03-25T11:26:25.109Z,41.09
2023-03-25T11:29:02.125Z,41.65
2023-03-25T11:31:35.291Z,42.79
2023-03-25T11:34:12.357Z,43.30
2023-03-25T11:36:55.775Z,44.60
2023-03-25T11:39:23.462Z,44.55
2023-03-25T11:41:52.867Z,45.17
2023-03-25T11:44:32.124Z,45.76
2023-03-25T11:47:06.714Z,45.72
2023-03-25T11:49:41.038Z,46.83
2023-03-25T11:52:22.890Z,47.87
2023-03-25T11:54:54.470Z,47.80
2023-03-25T11:57:29.609Z,48.12
2023-03-25T12:00:13.154Z,47.37
2023-03-25T12:02:41.382Z,47.16
2023-03-25T12:05:09.063Z,47.18
2023-03-25T12:07:51.716Z,47.57
2023-03-25T12:10:29.042Z,47.86
2023-03-25T12:13:24.414Z,47.58
2023-03-25T12:16:04.771Z,47.24
2023-03-25T12:18:57.455Z,47.81
2023-03-25T12:21:30.647Z,47.88
2023-03-25T12:24:38.572Z,47.71
2023-03-25T12:27:15.088Z,47.06
2023-03-25T12:30:07.124Z,47.80
2023-03-25T12:33:02.597Z,48.70
2023-03-25T12:36:04.965Z,49.06
2023-03-25T12:39:09.334Z,49.97
2023-03-25T12:41:54.993Z,51.94
2023-03-25T12:44:47.032Z,52.95
2023-03-25T12:47:38.846Z,53.68
2023-03-25T12:50:37.253Z,55.18
2023-03-25T12:53:15.777Z,56.38
2023-03-25T12:56:04.975Z,57.93
2023-03-25T12:58:46.834Z,58.66
2023-03-25T13:01:36.963Z,59.94
2023-03-25T13:04:17.347Z,60.65
2023-03-25T13:07:00.542Z,60.30
2023-03-25T13:09:42.926Z,59.78
2023-03-25T13:12:18.353Z,58.87
2023-03-25T13:14:57.380Z,58.42
2023-03-25T13:17:34.479Z,57.32
2023-03-25T13:20:10.961Z,56.17
2023-03-25T13:22:45.206Z,55.32
2023-03-25T13:25:26.988Z,54.52
2023-03-25T13:27:58.757Z,53.93
2023-03-25T13:30:35.286Z,53.09
2023-03-25T13:33:15.257Z,51.59
2023-03-25T13:35:56.645Z,50.88
2023-03-25T13:38:34.673Z,50.45
2023-03-25T13:41:12.274Z,50.17
2023-03-25T13:43:54.989Z,49.81
2023-03-25T13:46:26.726Z,49.23
2023-03-25T13:49:07.531Z,49.62
2023-03-25T13:51:35.396Z,49.18
2023-03-25T13:54:12.264Z,49.18
2023-03-25T13:56:46.194Z,49.50
2023-03-25T13:59:17.654Z,49.37
2023-03-25T14:02:17.510Z,50.38
2023-03-25T14:05:26.985Z,50.87
2023-03-25T14:08:00.701Z,50.79
2023-03-25T14:11:20.438Z,51.31
2023-03-25T14:14:01.668Z,52.88
2023-03-25T14:16:36.409Z,53.43
2023-03-25T14:19:10.552Z,54.14
2023-03-25T14:21:38.800Z,55.09
2023-03-25T14:24:35.551Z,56.06
2023-03-25T14:27:16.492Z,56.29
2023-03-25T14:29:52.837Z,57.30
2023-03-25T14:32:20.477Z,57.72
2023-03-25T14:34:52.965Z,57.71
2023-03-25T14:37:27.685Z,59.29
2023-03-25T14:40:01.026Z,59.30
2023-03-25T14:42:50.232Z,59.74
2023-03-25T14:45:32.913Z,59.74
2023-03-25T14:48:01.134Z,59.91
2023-03-25T14:50:28.751Z,59.75
2023-03-25T14:53:00.858Z,59.77
2023-03-25T14:55:42.598Z,60.12
2023-03-25T14:58:26.765Z,59.60
2023-03-25T15:01:04.763Z,59.38
2023-03-25T15:03:36.973Z,59.44
2023-03-25T15:06:07.320Z,59.36
2023-03-25T15:08:39.550Z,59.60
2023-03-25T15:11:16.057Z,59.59
2023-03-25T15:13:53.124Z,60.25
2023-03-25T15:16:35.119Z,61.73
2023-03-25T15:19:04.683Z,62.00
2023-03-25T15:21:35.588Z,63.14
2023-03-25T15:24:10.509Z,64.59
2023-03-25T15:26:45.031Z,65.06
2023-03-25T15:29:28.785Z,65.44
2023-03-25T15:32:09.285Z,66.53
2023-03-25T15:34:56.797Z,65.42
2023-03-25T15:37:48.889Z,65.23
2023-03-25T15:40:31.440Z,65.71
2023-03-25T15:43:40.646Z,66.55
2023-03-25T15:46:52.137Z,67.32
2023-03-25T15:49:41.129Z,67.00
2023-03-25T15:52:50.244Z,68.65
2023-03-25T15:55:24.801Z,68.56
2023-03-25T15:57:59.754Z,70.58
2023-03-25T16:00:42.632Z,69.96
2023-03-25T16:03:19.908Z,72.38
2023-03-25T16:06:08.274Z,72.63
2023-03-25T16:08:41.378Z,72.69
2023-03-25T16:11:22.005Z,73.71
2023-03-25T16:14:08.365Z,74.57
2023-03-25T16:16:39.776Z,75.10
2023-03-25T16:19:12.053Z,75.39
2023-03-25T16:21:39.712Z,75.93
2023-03-25T16:24:09.619Z,81.41
2023-03-25T16:26:40.772Z,78.82
2023-03-25T16:29:29.671Z,81.34
2023-03-25T16:32:03.005Z,82.56
2023-03-25T16:34:40.992Z,83.28
2023-03-25T16:37:11.509Z,81.76
2023-03-25T16:39:38.984Z,81.23
2023-03-25T16:42:20.438Z,81.25
2023-03-25T16:44:48.002Z,80.63
2023-03-25T16:47:16.469Z,81.34
2023-03-25T16:49:48.818Z,81.59
2023-03-25T16:52:19.773Z,82.89
2023-03-25T16:55:26.831Z,83.87
2023-03-25T16:57:54.583Z,83.84
2023-03-25T17:00:24.751Z,83.86
2023-03-25T17:02:54.257Z,85.65
2023-03-25T17:05:26.926Z,85.02
2023-03-25T17:08:05.065Z,84.26
2023-03-25T17:10:44.091Z,84.69
2023-03-25T17:13:11.779Z,85.27
2023-03-25T17:15:39.323Z,86.33
2023-03-25T17:18:12.437Z,93.47
2023-03-25T17:20:46.316Z,96.50
2023-03-25T17:23:37.401Z,99.35
2023-03-25T17:26:08.757Z,100.00
2023-03-25T17:28:40.419Z,97.55
2023-03-25T17:31:36.730Z,94.92
2023-03-25T17:34:32.205Z,96.20
2023-03-25T17:37:03.911Z,99.23
2023-03-25T17:39:33.678Z,100.00
2023-03-25T17:42:14.450Z,98.99
2023-03-25T17:44:45.523Z,99.04
2023-03-25T17:47:17.953Z,96.10
2023-03-25T17:49:45.222Z,95.28
2023-03-25T17:52:12.639Z,94.15
2023-03-25T17:54:39.729Z,94.61
2023-03-25T17:57:14.500Z,94.23
2023-03-25T17:59:41.817Z,95.46
2023-03-25T18:02:12.365Z,95.00
2023-03-25T18:04:39.658Z,96.06
2023-03-25T18:07:07.739Z,97.06
2023-03-25T18:09:35.507Z,97.73
2023-03-25T18:12:02.645Z,98.16
2023-03-25T18:14:29.985Z,99.45
2023-03-25T18:16:57.299Z,98.34
2023-03-25T18:19:27.712Z,96.76
2023-03-25T18:21:55.374Z,96.77
2023-03-25T18:24:22.953Z,95.70
2023-03-25T18:26:50.745Z,95.77
2023-03-25T18:29:28.550Z,100.00
2023-03-25T18:31:55.899Z,100.00
2023-03-25T18:34:25.736Z,100.00
2023-03-25T18:36:54.146Z,100.00
2023-03-25T18:39:27.094Z,99.51
2023-03-25T18:41:54.355Z,99.48
2023-03-25T18:44:21.760Z,98.61
2023-03-25T18:46:49.190Z,98.87
2023-03-25T18:49:18.768Z,98.39
2023-03-25T18:51:48.476Z,97.79
2023-03-25T18:54:15.888Z,97.56
2023-03-25T18:56:43.475Z,98.04
2023-03-25T18:59:15.803Z,100.00
2023-03-25T19:01:43.227Z,99.41
2023-03-25T19:04:10.779Z,100.00
2023-03-25T19:06:39.532Z,99.13
2023-03-25T19:09:11.521Z,100.00
2023-03-25T19:11:38.973Z,99.18
2023-03-25T19:14:06.319Z,98.46
2023-03-25T19:16:33.616Z,98.75
2023-03-25T19:19:01.647Z,99.39
2023-03-25T19:21:28.977Z,99.35
2023-03-25T19:23:56.390Z,98.88
2023-03-25T19:26:23.522Z,98.77
2023-03-25T19:28:50.926Z,98.80
2023-03-25T19:31:19.429Z,98.86
2023-03-25T19:33:46.920Z,98.90
2023-03-25T19:36:19.279Z,98.54
2023-03-25T19:38:47.134Z,99.31
2023-03-25T19:41:18.189Z,98.89
2023-03-25T19:43:46.076Z,99.09
2023-03-25T19:46:13.751Z,99.43
2023-03-25T19:48:41.116Z,100.00
2023-03-25T19:51:08.708Z,100.00
2023-03-25T19:53:36.213Z,100.00
2023-03-25T19:56:05.401Z,100.00
2023-03-25T19:58:35.052Z,100.00
2023-03-25T20:01:02.678Z,100.00
2023-03-25T20:03:31.686Z,100.00
2023-03-25T20:06:02.857Z,100.00
2023-03-25T20:08:30.552Z,100.00
2023-03-25T20:10:59.226Z,100.00
2023-03-25T20:13:26.768Z,100.00
2023-03-25T20:15:54.648Z,100.00
2023-03-25T20:18:25.331Z,100.00
2023-03-25T20:20:53.047Z,100.00
2023-03-25T20:23:20.542Z,100.00
2023-03-25T20:25:49.884Z,100.00
2023-03-25T20:28:18.636Z,100.00
2023-03-25T20:30:46.628Z,100.00
2023-03-25T20:33:13.899Z,100.00
2023-03-25T20:35:41.948Z,100.00
2023-03-25T20:38:10.047Z,100.00
2023-03-25T20:40:44.668Z,100.00
2023-03-25T20:43:14.757Z,100.00
2023-03-25T20:45:43.896Z,100.00
2023-03-25T20:48:11.317Z,100.00
2023-03-25T20:50:38.921Z,100.00
2023-03-25T20:53:06.204Z,100.00
2023-03-25T20:55:33.280Z,100.00
2023-03-25T20:58:01.115Z,100.00
2023-03-25T21:00:28.620Z,100.00
2023-03-25T21:02:55.994Z,100.00
2023-03-25T21:05:23.477Z,100.00
2023-03-25T21:07:51.245Z,100.00
2023-03-25T21:10:20.386Z,100.00
2023-03-25T21:12:48.173Z,100.00
2023-03-25T21:15:15.769Z,100.00
2023-03-25T21:17:43.561Z,100.00
2023-03-25T21:20:12.127Z,100.00
2023-03-25T21:22:44.046Z,100.00
2023-03-25T21:25:15.217Z,100.00
2023-03-25T21:27:45.472Z,100.00
2023-03-25T21:30:14.156Z,100.00
2023-03-25T21:32:42.353Z,100.00
2023-03-25T21:35:10.814Z,100.00
2023-03-25T21:37:39.958Z,100.00
2023-03-25T21:40:11.226Z,100.00
2023-03-25T21:42:41.721Z,100.00
2023-03-25T21:45:12.014Z,100.00
2023-03-25T21:47:40.300Z,100.00
2023-03-25T21:50:10.603Z,100.00
2023-03-25T21:52:43.423Z,100.00
2023-03-25T21:55:11.560Z,100.00
2023-03-25T21:57:39.765Z,100.00
2023-03-25T22:00:08.860Z,100.00
2023-03-25T22:02:43.596Z,100.00
2023-03-25T22:05:12.904Z,100.00
2023-03-25T22:07:41.661Z,100.00
2023-03-25T22:10:10.624Z,100.00
2023-03-25T22:12:38.420Z,100.00
2023-03-25T22:15:06.772Z,100.00
2023-03-25T22:17:34.298Z,100.00
2023-03-25T22:20:01.831Z,100.00
2023-03-25T22:22:30.320Z,100.00
2023-03-25T22:24:58.115Z,100.00
2023-03-25T22:27:26.105Z,100.00
2023-03-25T22:29:53.491Z,100.00
2023-03-25T22:32:20.903Z,100.00
2023-03-25T22:34:48.090Z,100.00
2023-03-25T22:37:15.875Z,100.00
2023-03-25T22:39:43.429Z,100.00
2023-03-25T22:42:10.399Z,100.00
2023-03-25T22:44:38.084Z,100.00
2023-03-25T22:47:05.358Z,100.00
2023-03-25T22:49:32.936Z,100.00
2023-03-25T22:52:01.468Z,100.00
2023-03-25T22:54:29.040Z,100.00
2023-03-25T22:56:56.339Z,100.00
2023-03-25T22:59:23.663Z,100.00
2023-03-25T23:01:50.964Z,100.00
2023-03-25T23:04:18.351Z,100.00
2023-03-25T23:06:53.933Z,100.00
2023-03-25T23:09:45.349Z,100.00
2023-03-25T23:12:15.969Z,100.00
2023-03-25T23:14:49.412Z,100.00
2023-03-25T23:17:17.201Z,100.00
2023-03-25T23:19:45.665Z,100.00
2023-03-25T23:22:13.258Z,100.00
2023-03-25T23:24:43.621Z,100.00
2023-03-25T23:27:12.441Z,100.00
2023-03-25T23:29:40.138Z,100.00
2023-03-25T23:32:08.980Z,100.00
2023-03-25T23:34:38.512Z,100.00
2023-03-25T23:37:07.813Z,100.00
2023-03-25T23:39:36.094Z,100.00
2023-03-25T23:42:03.393Z,100.00
2023-03-25T23:44:31.318Z,100.00
2023-03-25T23:46:58.814Z,100.00
2023-03-25T23:49:26.121Z,100.00
2023-03-25T23:51:53.423Z,100.00
2023-03-25T23:54:20.978Z,100.00
2023-03-25T23:56:48.150Z,100.00
2023-03-25T23:59:15.332Z,100.00
